Time;durP1;ratioP1;P1;durP2;ratioP2;P2;SDS_P1;SDS_P2;PMS_P1;PMS_P2;Temp;Humidity;BMP_temperature;BMP_pressure;BME280_temperature;BME280_humidity;BME280_pressure;Samples;Min_cycle;Max_cycle;Signal;HPM_P1;HPM_P2
2023/01/27 00:02:14;;;;;;;32.70;15.10;;;;;;;;;;5071909;28;20495;-63
2023/01/27 00:04:40;;;;;;;29.60;13.53;;;;;;;;;;5071178;28;20048;-62
2023/01/27 00:07:06;;;;;;;29.33;15.43;;;;;;;;;;5062931;28;20106;-62
2023/01/27 00:09:32;;;;;;;29.60;15.03;;;;;;;;;;5052008;28;20048;-62
2023/01/27 00:14:43;;;;;;;33.20;14.63;;;;;;;;;;5050648;28;20131;-62
2023/01/27 00:17:09;;;;;;;29.00;13.67;;;;;;;;;;5051500;28;20045;-63
2023/01/27 00:19:35;;;;;;;31.37;14.23;;;;;;;;;;5051585;28;20049;-63
2023/01/27 00:25:05;;;;;;;26.13;13.97;;;;;;;;;;5019255;28;20060;-62
2023/01/27 00:27:31;;;;;;;29.97;14.53;;;;;;;;;;5028617;28;20048;-62
2023/01/27 00:29:57;;;;;;;28.93;14.27;;;;;;;;;;5038757;28;20048;-62
2023/01/27 00:35:08;;;;;;;27.00;14.93;;;;;;;;;;5070103;28;20135;-62
2023/01/27 00:37:34;;;;;;;26.53;15.43;;;;;;;;;;5058860;28;20043;-63
2023/01/27 00:40:00;;;;;;;31.07;14.53;;;;;;;;;;5068247;28;20059;-63
2023/01/27 00:42:26;;;;;;;25.40;15.23;;;;;;;;;;5070554;28;20044;-62
2023/01/27 00:47:38;;;;;;;23.93;14.13;;;;;;;;;;5060878;28;20053;-63
2023/01/27 00:50:04;;;;;;;24.10;14.80;;;;;;;;;;5049635;28;20060;-62
2023/01/27 00:52:30;;;;;;;24.53;15.03;;;;;;;;;;5049057;28;20411;-62
2023/01/27 00:54:56;;;;;;;26.77;15.30;;;;;;;;;;5056850;28;20128;-62
2023/01/27 00:57:22;;;;;;;27.13;16.03;;;;;;;;;;5049225;28;20140;-62
2023/01/27 00:59:48;;;;;;;24.20;15.53;;;;;;;;;;5050706;28;20124;-62
2023/01/27 01:02:14;;;;;;;27.17;15.77;;;;;;;;;;5050936;28;20522;-62
2023/01/27 01:04:40;;;;;;;26.73;14.87;;;;;;;;;;5050644;28;20037;-62
2023/01/27 01:07:06;;;;;;;19.50;11.67;;;;;;;;;;5050161;28;20041;-62
2023/01/27 01:09:32;;;;;;;20.23;12.10;;;;;;;;;;5050745;28;20037;-62
2023/01/27 01:11:58;;;;;;;27.67;11.93;;;;;;;;;;5049864;28;20076;-62
2023/01/27 01:14:24;;;;;;;17.57;11.97;;;;;;;;;;5050558;28;20044;-63
2023/01/27 01:16:50;;;;;;;23.13;12.77;;;;;;;;;;5050349;28;20638;-62
2023/01/27 01:19:16;;;;;;;18.30;11.73;;;;;;;;;;5050435;28;20053;-62
2023/01/27 01:21:42;;;;;;;18.67;10.20;;;;;;;;;;5049703;28;20045;-62
2023/01/27 01:24:08;;;;;;;18.73;10.67;;;;;;;;;;5050538;28;20479;-62
2023/01/27 01:26:34;;;;;;;20.87;10.83;;;;;;;;;;5049013;28;20063;-62
2023/01/27 01:29:00;;;;;;;22.47;12.60;;;;;;;;;;5050039;28;20050;-62
2023/01/27 01:31:26;;;;;;;17.50;10.70;;;;;;;;;;5049661;28;20095;-63
2023/01/27 01:33:52;;;;;;;17.70;11.27;;;;;;;;;;5049606;28;20095;-63
2023/01/27 01:36:19;;;;;;;19.87;11.33;;;;;;;;;;5057504;28;20036;-62
2023/01/27 01:38:45;;;;;;;15.97;10.53;;;;;;;;;;5066105;28;20036;-62
2023/01/27 01:41:13;;;;;;;23.90;12.07;;;;;;;;;;5069327;28;20045;-62
2023/01/27 01:43:39;;;;;;;18.70;10.33;;;;;;;;;;5069884;28;20036;-62
2023/01/27 01:46:06;;;;;;;17.33;10.87;;;;;;;;;;5069047;28;20455;-64
2023/01/27 01:48:47;;;;;;;17.03;11.03;;;;;;;;;;5069350;28;20067;-62
2023/01/27 01:51:17;;;;;;;15.43;9.30;;;;;;;;;;5067617;28;20551;-62
2023/01/27 01:53:43;;;;;;;10.53;7.70;;;;;;;;;;5069569;28;20094;-62
2023/01/27 01:56:16;;;;;;;14.00;8.83;;;;;;;;;;5050987;28;20049;-63
2023/01/27 01:58:43;;;;;;;14.32;9.18;;;;;;;;;;5049729;28;20045;-63
2023/01/27 02:01:09;;;;;;;12.23;8.40;;;;;;;;;;5049076;28;20045;-61
2023/01/27 02:03:37;;;;;;;12.90;7.87;;;;;;;;;;5049737;28;20454;-62
2023/01/27 02:06:04;;;;;;;13.00;7.00;;;;;;;;;;5060781;28;20040;-61
2023/01/27 02:08:42;;;;;;;11.87;7.77;;;;;;;;;;5069530;28;20045;-62
2023/01/27 02:11:08;;;;;;;14.03;7.07;;;;;;;;;;5068207;28;20075;-61
2023/01/27 02:13:34;;;;;;;9.30;6.53;;;;;;;;;;5069137;28;20044;-62
2023/01/27 02:16:01;;;;;;;13.30;6.10;;;;;;;;;;5051100;28;20119;-62
2023/01/27 02:18:27;;;;;;;10.90;6.37;;;;;;;;;;5048149;28;20053;-62
2023/01/27 02:20:54;;;;;;;9.80;5.60;;;;;;;;;;5049297;28;20051;-62
2023/01/27 02:23:29;;;;;;;8.43;5.93;;;;;;;;;;5048243;28;20049;-62
2023/01/27 02:26:24;;;;;;;9.00;6.17;;;;;;;;;;5049056;28;20067;-61
2023/01/27 02:28:58;;;;;;;10.67;5.80;;;;;;;;;;5059318;28;20052;-61
2023/01/27 02:31:24;;;;;;;8.80;5.90;;;;;;;;;;5069048;28;20050;-61
2023/01/27 02:33:53;;;;;;;9.00;6.13;;;;;;;;;;5068433;28;20044;-62
2023/01/27 02:36:19;;;;;;;12.47;6.80;;;;;;;;;;5053820;28;20403;-62
2023/01/27 02:38:54;;;;;;;8.90;6.30;;;;;;;;;;5068972;28;20041;-61
2023/01/27 02:41:40;;;;;;;11.17;8.57;;;;;;;;;;5068728;28;20109;-62
2023/01/27 02:44:08;;;;;;;14.13;7.83;;;;;;;;;;5068712;28;20400;-62
2023/01/27 02:46:34;;;;;;;14.17;8.07;;;;;;;;;;5068758;28;20135;-62
2023/01/27 02:49:00;;;;;;;12.50;7.47;;;;;;;;;;5068689;28;20522;-62
2023/01/27 02:51:26;;;;;;;12.97;7.70;;;;;;;;;;5049681;28;20045;-62
2023/01/27 02:53:52;;;;;;;10.70;8.27;;;;;;;;;;5048790;28;20053;-62
2023/01/27 02:56:18;;;;;;;13.53;7.27;;;;;;;;;;5048746;28;20056;-61
2023/01/27 02:58:44;;;;;;;13.47;7.93;;;;;;;;;;5048335;28;20041;-62
2023/01/27 03:01:10;;;;;;;15.27;7.60;;;;;;;;;;5048428;28;20514;-62
2023/01/27 03:03:42;;;;;;;14.73;8.20;;;;;;;;;;5053612;28;20037;-62
2023/01/27 03:06:09;;;;;;;13.57;7.40;;;;;;;;;;5066394;28;20048;-62
2023/01/27 03:08:35;;;;;;;10.63;7.77;;;;;;;;;;5067592;28;20169;-62
2023/01/27 03:11:01;;;;;;;14.50;8.13;;;;;;;;;;5068752;28;20052;-61
2023/01/27 03:13:27;;;;;;;15.00;7.90;;;;;;;;;;5055979;28;20809;-62
2023/01/27 03:18:38;;;;;;;11.17;6.77;;;;;;;;;;5048254;28;20049;-62
2023/01/27 03:21:05;;;;;;;11.30;6.77;;;;;;;;;;5048536;28;20049;-62
2023/01/27 03:23:33;;;;;;;9.43;6.10;;;;;;;;;;5047337;28;20190;-62
2023/01/27 03:26:00;;;;;;;11.23;5.63;;;;;;;;;;5048048;28;20038;-62
2023/01/27 03:28:26;;;;;;;13.07;7.10;;;;;;;;;;5047984;28;20044;-61
2023/01/27 03:30:58;;;;;;;10.67;6.20;;;;;;;;;;5047088;28;20159;-62
2023/01/27 03:33:24;;;;;;;11.17;5.87;;;;;;;;;;5057815;28;20048;-62
2023/01/27 03:46:49;;;;;;;7.80;4.27;;;;;;;;;;5048086;28;20096;-62
2023/01/27 03:49:15;;;;;;;5.77;3.77;;;;;;;;;;5066886;28;20048;-62
2023/01/27 03:51:41;;;;;;;6.00;3.50;;;;;;;;;;5067714;28;20590;-62
2023/01/27 03:54:08;;;;;;;5.60;3.40;;;;;;;;;;5054948;28;20052;-62
2023/01/27 03:56:34;;;;;;;6.70;3.07;;;;;;;;;;5048119;28;20049;-62
2023/01/27 03:59:00;;;;;;;5.70;4.30;;;;;;;;;;5046739;28;20111;-62
2023/01/27 04:01:26;;;;;;;6.57;2.87;;;;;;;;;;5047838;28;20585;-62
2023/01/27 04:06:55;;;;;;;3.60;2.43;;;;;;;;;;5048265;28;20041;-62
2023/01/27 04:09:24;;;;;;;6.40;2.75;;;;;;;;;;5048490;28;20123;-62
2023/01/27 04:11:59;;;;;;;5.07;3.40;;;;;;;;;;5051735;28;20049;-64
2023/01/27 04:14:25;;;;;;;4.03;2.90;;;;;;;;;;5051630;28;20067;-62
2023/01/27 04:16:52;;;;;;;5.27;3.13;;;;;;;;;;5051738;28;20037;-62
2023/01/27 04:19:19;;;;;;;6.23;2.57;;;;;;;;;;5051562;28;20407;-62
2023/01/27 04:21:45;;;;;;;6.30;2.73;;;;;;;;;;5050752;28;20515;-62
2023/01/27 04:24:23;;;;;;;8.20;3.63;;;;;;;;;;5051480;28;20049;-62
2023/01/27 04:27:09;;;;;;;4.57;2.70;;;;;;;;;;5070289;28;20110;-62
2023/01/27 04:29:36;;;;;;;5.37;3.27;;;;;;;;;;5071142;28;20052;-62
2023/01/27 04:32:05;;;;;;;3.87;2.93;;;;;;;;;;5070768;28;20040;-62
2023/01/27 04:34:32;;;;;;;4.80;2.93;;;;;;;;;;5069670;28;20091;-62
2023/01/27 04:36:58;;;;;;;5.23;2.83;;;;;;;;;;5070610;28;20521;-62
2023/01/27 04:39:24;;;;;;;6.40;2.80;;;;;;;;;;5071321;28;20043;-62
2023/01/27 04:41:50;;;;;;;5.53;2.93;;;;;;;;;;5071158;28;20048;-62
2023/01/27 04:44:19;;;;;;;4.53;2.90;;;;;;;;;;5069377;28;20798;-62
2023/01/27 04:46:45;;;;;;;5.53;2.90;;;;;;;;;;5051114;28;20435;-62
2023/01/27 04:49:11;;;;;;;3.47;2.90;;;;;;;;;;5049124;28;20044;-62
2023/01/27 04:51:37;;;;;;;5.63;3.17;;;;;;;;;;5057338;28;20045;-62
2023/01/27 04:54:04;;;;;;;5.37;2.90;;;;;;;;;;5070926;28;20055;-62
2023/01/27 04:56:38;;;;;;;3.73;2.67;;;;;;;;;;5070695;28;20094;-62
2023/01/27 04:59:05;;;;;;;4.77;2.70;;;;;;;;;;5069228;28;20056;-62
2023/01/27 05:01:31;;;;;;;4.60;2.80;;;;;;;;;;5050130;28;20586;-62
2023/01/27 05:03:57;;;;;;;3.90;2.50;;;;;;;;;;5050529;28;20052;-62
2023/01/27 05:06:24;;;;;;;3.00;2.37;;;;;;;;;;5050989;28;20503;-62
2023/01/27 05:08:50;;;;;;;6.97;2.67;;;;;;;;;;5052002;28;20128;-62
2023/01/27 05:11:17;;;;;;;6.60;2.60;;;;;;;;;;5059860;28;20102;-62
2023/01/27 05:13:43;;;;;;;10.53;2.53;;;;;;;;;;5049815;28;20040;-62
2023/01/27 05:16:16;;;;;;;6.23;2.20;;;;;;;;;;5049376;28;20131;-62
2023/01/27 05:18:43;;;;;;;6.93;2.22;;;;;;;;;;5049617;28;20080;-62
2023/01/27 05:21:11;;;;;;;4.70;2.57;;;;;;;;;;5049660;28;20052;-62
2023/01/27 05:23:37;;;;;;;4.47;2.37;;;;;;;;;;5050347;28;20056;-62
2023/01/27 05:26:03;;;;;;;8.60;2.40;;;;;;;;;;5048450;28;20053;-62
2023/01/27 05:28:29;;;;;;;3.63;2.37;;;;;;;;;;5049637;28;20041;-62
2023/01/27 05:31:07;;;;;;;5.57;2.90;;;;;;;;;;5049091;28;20458;-62
2023/01/27 05:33:33;;;;;;;6.90;2.97;;;;;;;;;;5049969;28;20045;-62
2023/01/27 05:36:00;;;;;;;4.83;2.00;;;;;;;;;;5049460;28;20545;-62
2023/01/27 05:38:26;;;;;;;5.07;2.17;;;;;;;;;;5049839;28;20123;-62
2023/01/27 05:40:56;;;;;;;4.37;2.13;;;;;;;;;;5049036;28;20098;-62
2023/01/27 05:43:22;;;;;;;4.27;2.50;;;;;;;;;;5061073;28;20084;-62
2023/01/27 05:45:48;;;;;;;7.83;2.57;;;;;;;;;;5068984;28;20052;-62
2023/01/27 05:48:14;;;;;;;4.97;2.37;;;;;;;;;;5068010;28;20048;-62
2023/01/27 05:50:40;;;;;;;4.93;2.10;;;;;;;;;;5068971;28;20135;-62
2023/01/27 05:53:06;;;;;;;4.37;2.40;;;;;;;;;;5059955;28;20059;-62
2023/01/27 05:55:32;;;;;;;4.77;2.60;;;;;;;;;;5047446;28;20049;-62
2023/01/27 05:57:58;;;;;;;6.50;2.40;;;;;;;;;;5054764;28;20048;-62
2023/01/27 06:00:24;;;;;;;5.00;2.30;;;;;;;;;;5047105;28;20102;-62
2023/01/27 06:02:50;;;;;;;5.43;2.30;;;;;;;;;;5047134;28;20584;-62
2023/01/27 06:05:16;;;;;;;7.13;2.50;;;;;;;;;;5048114;28;20179;-62
2023/01/27 06:07:42;;;;;;;4.20;2.70;;;;;;;;;;5067703;28;20132;-62
2023/01/27 06:10:09;;;;;;;8.87;2.77;;;;;;;;;;5049336;28;20183;-62
2023/01/27 06:12:35;;;;;;;5.93;2.60;;;;;;;;;;5067473;28;20506;-62
2023/01/27 06:15:01;;;;;;;5.10;3.10;;;;;;;;;;5069098;28;20078;-62
2023/01/27 06:17:27;;;;;;;4.43;2.70;;;;;;;;;;5069036;28;20062;-62
2023/01/27 06:19:53;;;;;;;7.27;2.40;;;;;;;;;;5068424;28;20513;-62
2023/01/27 06:22:19;;;;;;;5.40;2.33;;;;;;;;;;5048378;28;20052;-62
2023/01/27 06:24:45;;;;;;;6.23;2.30;;;;;;;;;;5049113;28;20041;-62
2023/01/27 06:27:11;;;;;;;5.00;2.80;;;;;;;;;;5048789;28;20095;-62
2023/01/27 06:29:37;;;;;;;4.97;2.40;;;;;;;;;;5054415;28;20510;-62
2023/01/27 06:32:03;;;;;;;5.50;2.53;;;;;;;;;;5058556;28;20059;-63
2023/01/27 06:34:29;;;;;;;5.37;2.53;;;;;;;;;;5067955;28;20079;-62
2023/01/27 06:36:55;;;;;;;4.70;2.50;;;;;;;;;;5051852;28;20138;-62
2023/01/27 06:39:21;;;;;;;15.50;4.33;;;;;;;;;;5048705;28;20414;-62
2023/01/27 06:41:49;;;;;;;4.53;2.30;;;;;;;;;;5048625;28;20041;-62
2023/01/27 06:44:15;;;;;;;6.33;2.97;;;;;;;;;;5048545;28;20055;-62
2023/01/27 06:46:41;;;;;;;5.97;3.40;;;;;;;;;;5047787;28;20045;-62
2023/01/27 06:49:07;;;;;;;6.73;2.80;;;;;;;;;;5048979;28;20048;-63
2023/01/27 06:51:33;;;;;;;5.83;3.03;;;;;;;;;;5055385;28;20056;-61
2023/01/27 06:53:59;;;;;;;5.00;2.63;;;;;;;;;;5056811;28;20123;-62
2023/01/27 06:56:25;;;;;;;7.00;3.40;;;;;;;;;;5068204;28;20384;-62
2023/01/27 06:58:51;;;;;;;6.97;2.80;;;;;;;;;;5067888;28;20045;-62
2023/01/27 07:01:17;;;;;;;7.07;2.80;;;;;;;;;;5068467;28;20041;-62
2023/01/27 07:03:43;;;;;;;6.13;3.00;;;;;;;;;;5051872;28;20045;-62
2023/01/27 07:06:09;;;;;;;6.80;3.10;;;;;;;;;;5048176;28;20148;-62
2023/01/27 07:08:36;;;;;;;6.33;3.10;;;;;;;;;;5050501;28;20049;-62
2023/01/27 07:11:03;;;;;;;6.40;3.37;;;;;;;;;;5048456;28;20047;-62
2023/01/27 07:13:30;;;;;;;6.47;2.87;;;;;;;;;;5048083;28;20049;-62
2023/01/27 07:15:56;;;;;;;7.77;3.00;;;;;;;;;;5056746;28;20041;-62
2023/01/27 07:18:22;;;;;;;8.37;3.07;;;;;;;;;;5047662;28;20052;-62
2023/01/27 07:20:48;;;;;;;6.43;3.40;;;;;;;;;;5067069;28;20742;-62
2023/01/27 07:23:14;;;;;;;8.77;3.97;;;;;;;;;;5063820;28;20079;-62
2023/01/27 07:25:41;;;;;;;9.80;3.37;;;;;;;;;;5062458;28;20112;-61
2023/01/27 07:28:07;;;;;;;10.37;3.73;;;;;;;;;;5055378;28;20503;-62
2023/01/27 07:30:33;;;;;;;5.23;2.90;;;;;;;;;;5066564;28;20045;-61
2023/01/27 07:33:03;;;;;;;6.97;3.77;;;;;;;;;;5063386;28;20051;-62
2023/01/27 07:35:29;;;;;;;10.27;3.70;;;;;;;;;;5054917;28;20299;-61
2023/01/27 07:37:56;;;;;;;7.97;3.50;;;;;;;;;;5066080;28;20131;-62
2023/01/27 07:40:22;;;;;;;10.90;4.10;;;;;;;;;;5062309;28;20051;-61
2023/01/27 07:42:48;;;;;;;7.77;4.73;;;;;;;;;;5066935;28;20037;-61
2023/01/27 07:45:14;;;;;;;9.80;3.53;;;;;;;;;;5066101;28;20771;-62
2023/01/27 07:47:40;;;;;;;7.40;4.13;;;;;;;;;;5051358;28;20045;-62
2023/01/27 07:50:07;;;;;;;7.03;3.47;;;;;;;;;;5070390;28;20059;-62
2023/01/27 07:52:33;;;;;;;10.70;4.53;;;;;;;;;;5071359;28;20295;-62
2023/01/27 07:54:59;;;;;;;12.03;3.90;;;;;;;;;;5056439;28;20048;-62
2023/01/27 07:57:25;;;;;;;8.47;3.90;;;;;;;;;;5068906;28;20044;-62
2023/01/27 07:59:54;;;;;;;11.47;4.37;;;;;;;;;;5063930;28;20325;-62
2023/01/27 08:02:21;;;;;;;6.93;3.90;;;;;;;;;;5056392;28;20060;-62
2023/01/27 08:04:50;;;;;;;10.00;4.83;;;;;;;;;;5067136;28;20044;-62
2023/01/27 08:07:16;;;;;;;12.27;4.73;;;;;;;;;;5051348;28;20052;-62
2023/01/27 08:09:42;;;;;;;9.10;5.10;;;;;;;;;;5061050;28;20395;-62
2023/01/27 08:12:08;;;;;;;6.87;4.70;;;;;;;;;;5070017;28;20102;-62
2023/01/27 08:14:34;;;;;;;10.33;4.20;;;;;;;;;;5053547;28;20041;-62
2023/01/27 08:17:00;;;;;;;8.93;4.43;;;;;;;;;;5051034;28;20037;-62
2023/01/27 08:19:26;;;;;;;9.47;4.37;;;;;;;;;;5056403;28;20071;-62
2023/01/27 08:21:52;;;;;;;14.70;4.77;;;;;;;;;;5059351;28;20091;-62
2023/01/27 08:24:18;;;;;;;9.27;4.77;;;;;;;;;;5067489;28;20072;-62
2023/01/27 08:26:44;;;;;;;8.17;4.63;;;;;;;;;;5065852;28;20115;-62
2023/01/27 08:29:10;;;;;;;9.87;4.30;;;;;;;;;;5069444;28;20477;-62
2023/01/27 08:31:36;;;;;;;14.30;5.23;;;;;;;;;;5070450;28;20143;-62
2023/01/27 08:34:02;;;;;;;10.03;4.77;;;;;;;;;;5055960;28;20072;-62
2023/01/27 08:36:28;;;;;;;9.93;4.73;;;;;;;;;;5060649;28;20098;-61
2023/01/27 08:38:55;;;;;;;14.30;6.40;;;;;;;;;;5062111;28;20098;-62
2023/01/27 08:41:22;;;;;;;7.47;4.70;;;;;;;;;;5051870;28;20045;-61
2023/01/27 08:43:49;;;;;;;11.53;4.10;;;;;;;;;;5059567;28;20051;-62
2023/01/27 08:46:16;;;;;;;10.17;5.40;;;;;;;;;;5064610;28;20037;-62
2023/01/27 08:48:42;;;;;;;11.37;4.40;;;;;;;;;;5053884;28;20056;-62
2023/01/27 08:51:09;;;;;;;6.80;4.20;;;;;;;;;;5050334;28;20064;-62
2023/01/27 08:53:38;;;;;;;7.27;4.53;;;;;;;;;;5053251;28;20090;-61
2023/01/27 08:56:06;;;;;;;6.67;4.00;;;;;;;;;;5065883;28;20040;-62
2023/01/27 08:58:35;;;;;;;8.43;4.17;;;;;;;;;;5068335;28;20066;-62
2023/01/27 09:01:02;;;;;;;7.83;4.40;;;;;;;;;;5069916;28;20048;-61
2023/01/27 09:03:28;;;;;;;8.90;4.07;;;;;;;;;;5069511;28;20430;-62
2023/01/27 09:05:54;;;;;;;9.20;4.10;;;;;;;;;;5070043;28;20483;-62
2023/01/27 09:08:20;;;;;;;8.67;3.40;;;;;;;;;;5068489;28;20383;-62
2023/01/27 09:10:46;;;;;;;11.37;3.60;;;;;;;;;;5069941;28;20095;-62
2023/01/27 09:13:13;;;;;;;8.67;4.53;;;;;;;;;;5069890;28;20048;-62
2023/01/27 09:15:39;;;;;;;7.30;3.80;;;;;;;;;;5069129;28;20102;-62
2023/01/27 09:18:05;;;;;;;7.23;3.30;;;;;;;;;;5065297;28;20052;-62
2023/01/27 09:20:33;;;;;;;6.57;2.97;;;;;;;;;;5054210;28;20056;-62
2023/01/27 09:22:59;;;;;;;6.00;3.70;;;;;;;;;;5049943;28;20054;-62
2023/01/27 09:25:25;;;;;;;7.07;4.10;;;;;;;;;;5049513;28;20136;-62
2023/01/27 09:27:55;;;;;;;8.07;3.57;;;;;;;;;;5049891;28;20052;-62
2023/01/27 09:30:22;;;;;;;6.10;3.00;;;;;;;;;;5048975;28;20056;-61
2023/01/27 09:32:49;;;;;;;5.90;3.20;;;;;;;;;;5049081;28;20037;-62
2023/01/27 09:35:15;;;;;;;5.90;3.37;;;;;;;;;;5049499;28;20511;-62
2023/01/27 09:37:44;;;;;;;6.30;3.23;;;;;;;;;;5049503;28;20473;-62
2023/01/27 09:40:33;;;;;;;7.63;3.50;;;;;;;;;;5052291;28;20090;-61
2023/01/27 09:43:03;;;;;;;6.27;3.40;;;;;;;;;;5060181;28;20045;-62
2023/01/27 09:45:29;;;;;;;6.70;3.40;;;;;;;;;;5047625;28;20049;-62
2023/01/27 09:48:14;;;;;;;5.83;3.90;;;;;;;;;;5049143;28;20069;-62
2023/01/27 09:51:04;;;;;;;4.50;3.27;;;;;;;;;;5049330;28;20128;-62
2023/01/27 09:53:38;;;;;;;5.83;3.80;;;;;;;;;;5048794;28;20048;-62
2023/01/27 09:56:13;;;;;;;6.38;3.55;;;;;;;;;;5049786;28;20106;-62
2023/01/27 09:58:54;;;;;;;5.83;3.47;;;;;;;;;;5051816;28;20080;-62
2023/01/27 10:01:31;;;;;;;7.83;3.70;;;;;;;;;;5048649;28;20060;-62
2023/01/27 10:04:01;;;;;;;8.27;3.60;;;;;;;;;;5048503;28;20037;-62
2023/01/27 10:06:38;;;;;;;8.30;4.07;;;;;;;;;;5052814;28;20041;-62
2023/01/27 10:09:07;;;;;;;6.07;3.43;;;;;;;;;;5067765;28;20052;-62
2023/01/27 10:11:48;;;;;;;7.27;3.40;;;;;;;;;;5068087;28;20053;-62
2023/01/27 10:14:37;;;;;;;6.57;3.20;;;;;;;;;;5068440;28;20056;-62
2023/01/27 10:17:16;;;;;;;7.07;3.87;;;;;;;;;;5068514;28;20052;-62
2023/01/27 10:19:49;;;;;;;4.47;3.40;;;;;;;;;;5051065;28;20049;-61
2023/01/27 10:22:22;;;;;;;4.93;3.42;;;;;;;;;;5048447;28;20051;-61
2023/01/27 10:25:06;;;;;;;7.17;2.90;;;;;;;;;;5048676;28;20494;-62
2023/01/27 10:27:36;;;;;;;6.90;3.30;;;;;;;;;;5048272;28;20106;-62
2023/01/27 10:30:02;;;;;;;5.17;3.13;;;;;;;;;;5048519;28;20049;-62
2023/01/27 10:32:42;;;;;;;7.33;3.93;;;;;;;;;;5048564;28;20045;-62
2023/01/27 10:35:12;;;;;;;6.97;4.83;;;;;;;;;;5052208;28;20044;-62
2023/01/27 10:37:46;;;;;;;4.43;3.10;;;;;;;;;;5068141;28;20048;-61
2023/01/27 10:40:12;;;;;;;5.57;3.43;;;;;;;;;;5067737;28;20135;-62
2023/01/27 10:42:43;;;;;;;8.13;3.70;;;;;;;;;;5067761;28;20384;-61
2023/01/27 10:45:16;;;;;;;4.60;3.17;;;;;;;;;;5068360;28;20053;-61
2023/01/27 10:47:48;;;;;;;5.03;3.30;;;;;;;;;;5063658;28;20187;-61
2023/01/27 10:50:19;;;;;;;4.63;2.93;;;;;;;;;;5047578;28;20609;-61
2023/01/27 10:52:47;;;;;;;6.07;2.70;;;;;;;;;;5048060;28;20049;-61
2023/01/27 10:55:20;;;;;;;3.63;2.80;;;;;;;;;;5048095;28;20275;-61
2023/01/27 10:58:02;;;;;;;4.10;2.80;;;;;;;;;;5046746;28;20052;-61
2023/01/27 11:00:31;;;;;;;5.70;2.90;;;;;;;;;;5046735;28;20045;-62
2023/01/27 11:03:02;;;;;;;4.73;2.63;;;;;;;;;;5056022;28;20342;-61
2023/01/27 11:05:32;;;;;;;5.37;3.00;;;;;;;;;;5048648;28;20520;-61
2023/01/27 11:08:01;;;;;;;4.40;2.80;;;;;;;;;;5048140;28;20041;-61
2023/01/27 11:10:32;;;;;;;5.73;3.80;;;;;;;;;;5047911;28;20110;-61
2023/01/27 11:12:58;;;;;;;4.50;3.20;;;;;;;;;;5047160;28;20052;-61
2023/01/27 11:15:27;;;;;;;5.10;3.60;;;;;;;;;;5048029;28;20041;-61
2023/01/27 11:17:59;;;;;;;7.53;3.00;;;;;;;;;;5047576;28;20037;-61
2023/01/27 11:20:31;;;;;;;4.20;3.00;;;;;;;;;;5064525;28;20040;-61
2023/01/27 11:23:09;;;;;;;4.80;2.97;;;;;;;;;;5071498;28;20049;-61
2023/01/27 11:25:41;;;;;;;3.97;2.53;;;;;;;;;;5072078;28;20044;-62
2023/01/27 11:28:07;;;;;;;4.80;3.10;;;;;;;;;;5071217;28;20044;-61
2023/01/27 11:30:38;;;;;;;6.77;3.03;;;;;;;;;;5071903;28;20048;-61
2023/01/27 11:33:17;;;;;;;4.83;3.03;;;;;;;;;;5067914;28;20052;-61
2023/01/27 11:35:43;;;;;;;4.53;3.00;;;;;;;;;;5061578;28;20477;-61
2023/01/27 11:38:14;;;;;;;3.93;2.83;;;;;;;;;;5064231;28;20044;-61
2023/01/27 11:40:40;;;;;;;4.37;2.77;;;;;;;;;;5070684;28;20452;-61
2023/01/27 11:43:07;;;;;;;5.00;2.90;;;;;;;;;;5069032;28;20045;-62
2023/01/27 11:45:36;;;;;;;4.57;2.43;;;;;;;;;;5071079;28;20040;-61
2023/01/27 11:48:05;;;;;;;5.60;2.50;;;;;;;;;;5070000;28;20065;-62
2023/01/27 11:50:33;;;;;;;4.20;3.30;;;;;;;;;;5051932;28;20053;-61
2023/01/27 11:53:19;;;;;;;5.17;3.00;;;;;;;;;;5058099;28;20526;-61
2023/01/27 11:55:57;;;;;;;5.37;2.63;;;;;;;;;;5050949;28;20048;-61
2023/01/27 11:58:25;;;;;;;5.17;3.13;;;;;;;;;;5055509;28;20062;-61
2023/01/27 12:00:56;;;;;;;4.00;2.80;;;;;;;;;;5066665;28;20047;-62
2023/01/27 12:03:32;;;;;;;3.93;2.83;;;;;;;;;;5062520;28;20041;-61
2023/01/27 12:06:04;;;;;;;5.00;2.77;;;;;;;;;;5061615;28;20094;-62
2023/01/27 12:08:41;;;;;;;4.73;2.63;;;;;;;;;;5067000;28;20596;-61
2023/01/27 12:11:16;;;;;;;4.73;3.10;;;;;;;;;;5061159;28;20131;-61
2023/01/27 12:13:47;;;;;;;3.77;2.57;;;;;;;;;;5062476;28;20060;-61
2023/01/27 12:16:14;;;;;;;4.23;2.90;;;;;;;;;;5060943;28;20067;-62
2023/01/27 12:18:47;;;;;;;5.23;3.13;;;;;;;;;;5057946;28;20049;-61
2023/01/27 12:21:13;;;;;;;3.70;2.95;;;;;;;;;;5061430;28;20371;-61
2023/01/27 12:23:40;;;;;;;4.87;2.70;;;;;;;;;;5057681;28;20128;-61
2023/01/27 12:26:08;;;;;;;4.13;2.70;;;;;;;;;;5059683;28;20037;-61
2023/01/27 12:28:36;;;;;;;4.10;2.83;;;;;;;;;;5055253;28;20046;-61
2023/01/27 12:31:05;;;;;;;3.87;2.43;;;;;;;;;;5056871;28;20049;-61
2023/01/27 12:33:32;;;;;;;5.20;2.37;;;;;;;;;;5057055;28;20491;-61
2023/01/27 12:36:03;;;;;;;5.37;2.67;;;;;;;;;;5067322;28;20047;-61
2023/01/27 12:38:34;;;;;;;6.47;2.37;;;;;;;;;;5069143;28;20044;-61
2023/01/27 12:41:04;;;;;;;4.87;2.60;;;;;;;;;;5066251;28;20518;-61
2023/01/27 12:43:30;;;;;;;4.43;2.53;;;;;;;;;;5053747;28;20048;-62
2023/01/27 12:46:06;;;;;;;3.13;2.20;;;;;;;;;;5069346;28;20048;-61
2023/01/27 12:48:33;;;;;;;3.63;2.47;;;;;;;;;;5068741;28;20063;-62
2023/01/27 12:51:04;;;;;;;3.80;2.33;;;;;;;;;;5059272;28;20078;-61
2023/01/27 12:53:30;;;;;;;3.10;1.83;;;;;;;;;;5061355;28;20056;-61
2023/01/27 12:56:15;;;;;;;2.83;1.90;;;;;;;;;;5062602;28;20079;-61
2023/01/27 12:58:53;;;;;;;2.90;1.73;;;;;;;;;;5060109;28;20048;-61
2023/01/27 13:01:19;;;;;;;2.97;1.97;;;;;;;;;;5054916;28;20048;-61
2023/01/27 13:03:48;;;;;;;3.03;1.97;;;;;;;;;;5069433;28;20063;-61
2023/01/27 13:06:15;;;;;;;2.77;1.73;;;;;;;;;;5063680;28;20525;-61
2023/01/27 13:08:41;;;;;;;2.97;2.00;;;;;;;;;;5052309;28;20423;-61
2023/01/27 13:11:07;;;;;;;2.73;1.93;;;;;;;;;;5049132;28;20081;-61
2023/01/27 13:13:34;;;;;;;3.30;1.83;;;;;;;;;;5049965;28;20084;-61
2023/01/27 13:16:00;;;;;;;2.83;2.07;;;;;;;;;;5050476;28;20051;-61
2023/01/27 13:18:32;;;;;;;2.87;2.10;;;;;;;;;;5049398;28;20053;-61
2023/01/27 13:21:03;;;;;;;2.83;1.97;;;;;;;;;;5048761;28;20514;-61
2023/01/27 13:23:31;;;;;;;2.40;1.50;;;;;;;;;;5050075;28;20091;-61
2023/01/27 13:26:10;;;;;;;2.47;1.70;;;;;;;;;;5049454;28;20049;-61
2023/01/27 13:28:39;;;;;;;3.23;1.87;;;;;;;;;;5049821;28;20064;-61
2023/01/27 13:31:07;;;;;;;2.93;2.00;;;;;;;;;;5049448;28;20431;-61
2023/01/27 13:33:43;;;;;;;2.73;1.70;;;;;;;;;;5064825;28;20577;-61
2023/01/27 13:36:27;;;;;;;3.73;2.10;;;;;;;;;;5069728;28;20041;-61
2023/01/27 13:38:58;;;;;;;2.47;1.70;;;;;;;;;;5069291;28;20094;-61
2023/01/27 13:41:28;;;;;;;2.70;1.60;;;;;;;;;;5069189;28;20052;-61
2023/01/27 13:44:01;;;;;;;4.73;2.53;;;;;;;;;;5069438;28;20526;-61
2023/01/27 13:46:29;;;;;;;6.50;1.67;;;;;;;;;;5069088;28;20071;-61
2023/01/27 13:48:58;;;;;;;3.33;1.50;;;;;;;;;;5068519;28;20060;-61
2023/01/27 13:51:27;;;;;;;2.97;1.40;;;;;;;;;;5069258;28;20052;-61
2023/01/27 13:54:01;;;;;;;2.00;1.10;;;;;;;;;;5069523;28;20045;-61
2023/01/27 13:56:27;;;;;;;1.83;1.20;;;;;;;;;;5049073;28;20446;-61
2023/01/27 13:58:59;;;;;;;3.07;1.47;;;;;;;;;;5061522;28;20502;-61
2023/01/27 14:01:25;;;;;;;2.50;1.60;;;;;;;;;;5068780;28;20040;-61
2023/01/27 14:04:10;;;;;;;2.50;1.47;;;;;;;;;;5068895;28;20415;-61
2023/01/27 14:06:36;;;;;;;2.07;1.20;;;;;;;;;;5061509;28;20049;-61
2023/01/27 14:09:14;;;;;;;2.40;1.30;;;;;;;;;;5049136;28;20049;-61
2023/01/27 14:11:52;;;;;;;2.47;1.40;;;;;;;;;;5048571;28;20044;-61
2023/01/27 14:14:23;;;;;;;2.27;1.47;;;;;;;;;;5049204;28;20045;-61
2023/01/27 14:16:58;;;;;;;2.27;1.53;;;;;;;;;;5049267;28;20052;-61
2023/01/27 14:19:42;;;;;;;2.33;1.50;;;;;;;;;;5048107;28;20089;-60
2023/01/27 14:22:16;;;;;;;3.30;1.43;;;;;;;;;;5048434;28;20056;-60
2023/01/27 14:24:49;;;;;;;6.00;1.60;;;;;;;;;;5048417;28;20053;-61
2023/01/27 14:27:15;;;;;;;2.45;1.73;;;;;;;;;;5047948;28;20051;-61
2023/01/27 14:29:52;;;;;;;3.30;1.83;;;;;;;;;;5048075;28;20053;-60
2023/01/27 14:32:19;;;;;;;3.77;1.83;;;;;;;;;;5048246;28;20518;-60
2023/01/27 14:34:45;;;;;;;2.57;1.77;;;;;;;;;;5048454;28;20049;-60
2023/01/27 14:37:17;;;;;;;4.53;1.93;;;;;;;;;;5048052;28;20049;-60
2023/01/27 14:39:46;;;;;;;3.43;2.20;;;;;;;;;;5048093;28;20051;-60
2023/01/27 14:42:50;;;;;;;3.87;2.27;;;;;;;;;;5047383;28;20057;-60
2023/01/27 14:45:19;;;;;;;3.07;1.63;;;;;;;;;;5025340;28;20045;-61
2023/01/27 14:47:57;;;;;;;3.17;1.93;;;;;;;;;;5025544;28;20045;-61
2023/01/27 14:50:30;;;;;;;2.70;2.17;;;;;;;;;;5038445;28;20504;-61
2023/01/27 14:53:06;;;;;;;2.30;1.63;;;;;;;;;;5047297;28;20057;-61
2023/01/27 14:55:51;;;;;;;2.60;1.70;;;;;;;;;;5047296;28;20064;-61
2023/01/27 14:58:35;;;;;;;2.97;1.57;;;;;;;;;;5047809;28;20051;-60
2023/01/27 15:01:07;;;;;;;2.33;1.40;;;;;;;;;;5046495;28;20095;-60
2023/01/27 15:03:40;;;;;;;2.43;1.67;;;;;;;;;;5047912;28;20063;-61
2023/01/27 15:06:20;;;;;;;3.03;1.43;;;;;;;;;;5047259;28;20049;-60
2023/01/27 15:08:55;;;;;;;3.37;1.60;;;;;;;;;;5047988;28;20411;-61
2023/01/27 15:11:30;;;;;;;2.50;1.70;;;;;;;;;;5046659;28;20049;-60
2023/01/27 15:14:03;;;;;;;1.97;1.07;;;;;;;;;;5046611;28;20049;-60
2023/01/27 15:16:35;;;;;;;2.00;1.20;;;;;;;;;;5048069;28;20049;-61
2023/01/27 15:19:19;;;;;;;2.47;1.50;;;;;;;;;;5047415;28;20049;-60